Time;durP1;ratioP1;P1;durP2;ratioP2;P2;SDS_P1;SDS_P2;PMS_P1;PMS_P2;Temp;Humidity;BMP_temperature;BMP_pressure;BME280_temperature;BME280_humidity;BME280_pressure;Samples;Min_cycle;Max_cycle;Signal;HPM_P1;HPM_P2
2020/12/18 00:01:47;;;;;;;21.47;13.73;;;4.00;99.90;;;;;;4960879;28;20454;-86
2020/12/18 00:04:15;;;;;;;20.20;13.07;;;4.00;99.90;;;;;;4936959;28;20516;-85
2020/12/18 00:06:46;;;;;;;20.27;14.97;;;4.00;99.90;;;;;;4939055;28;20437;-86
2020/12/18 00:09:32;;;;;;;20.90;15.00;;;4.10;99.90;;;;;;4956713;28;20516;-86
2020/12/18 00:12:03;;;;;;;22.97;13.90;;;4.00;99.90;;;;;;4960551;28;20434;-85
2020/12/18 00:14:32;;;;;;;16.70;12.50;;;4.00;99.90;;;;;;4974571;28;20804;-84
2020/12/18 00:17:00;;;;;;;21.63;13.40;;;3.90;99.90;;;;;;4957650;28;20525;-88
2020/12/18 00:19:35;;;;;;;21.60;14.50;;;3.90;99.90;;;;;;4941871;28;20547;-87
2020/12/18 00:22:01;;;;;;;18.43;13.23;;;3.90;99.90;;;;;;4930849;28;20432;-84
2020/12/18 00:24:27;;;;;;;23.67;13.23;;;3.90;99.90;;;;;;4943224;28;20446;-87
2020/12/18 00:26:53;;;;;;;20.13;12.43;;;3.80;99.90;;;;;;4975072;28;20561;-88
2020/12/18 00:29:19;;;;;;;18.17;12.20;;;3.80;99.90;;;;;;4957826;28;20449;-86
2020/12/18 00:31:50;;;;;;;19.50;12.57;;;3.70;99.90;;;;;;4946421;28;20430;-85
2020/12/18 00:34:18;;;;;;;22.97;13.50;;;3.60;99.90;;;;;;4955333;28;20270;-86
2020/12/18 00:36:52;;;;;;;21.10;13.73;;;3.70;99.90;;;;;;4958872;28;20536;-86
2020/12/18 00:39:23;;;;;;;19.53;13.83;;;3.70;99.90;;;;;;4956637;28;20446;-87
2020/12/18 00:42:01;;;;;;;18.37;12.93;;;3.60;99.90;;;;;;4954810;28;20430;-85
2020/12/18 00:44:27;;;;;;;14.80;10.60;;;3.40;99.90;;;;;;4972876;28;20421;-85
2020/12/18 00:46:53;;;;;;;19.60;13.33;;;3.40;99.90;;;;;;4959742;28;20430;-86
2020/12/18 00:49:26;;;;;;;19.30;12.33;;;3.30;99.90;;;;;;4969424;28;20681;-86
2020/12/18 00:51:53;;;;;;;16.60;11.90;;;3.40;99.90;;;;;;4958705;28;20205;-85
2020/12/18 00:54:22;;;;;;;17.27;13.30;;;3.40;99.90;;;;;;4957049;28;20441;-86
2020/12/18 00:56:50;;;;;;;19.13;12.27;;;3.40;99.90;;;;;;4958124;28;20518;-86
2020/12/18 00:59:18;;;;;;;20.00;12.60;;;3.40;99.90;;;;;;4967867;28;20453;-87
2020/12/18 01:02:05;;;;;;;16.50;11.30;;;3.40;99.90;;;;;;4972072;28;20433;-86
2020/12/18 01:04:31;;;;;;;19.00;11.10;;;3.40;99.90;;;;;;4944029;28;20429;-86
2020/12/18 01:06:57;;;;;;;14.47;11.23;;;3.30;99.90;;;;;;4958216;28;20430;-86
2020/12/18 01:09:26;;;;;;;18.83;12.00;;;3.30;99.90;;;;;;4927595;28;20213;-85
2020/12/18 01:11:57;;;;;;;15.80;11.87;;;3.30;99.90;;;;;;4953443;28;20550;-86
2020/12/18 01:14:29;;;;;;;14.83;11.63;;;3.20;99.90;;;;;;4941059;28;20426;-85
2020/12/18 01:16:56;;;;;;;17.37;12.63;;;3.20;99.90;;;;;;4969924;28;20457;-85
2020/12/18 01:19:27;;;;;;;16.53;11.00;;;3.10;99.90;;;;;;4954701;28;20521;-84
2020/12/18 01:21:53;;;;;;;19.43;11.13;;;3.10;99.90;;;;;;4966010;28;20431;-86
2020/12/18 01:24:19;;;;;;;14.90;10.53;;;3.10;99.90;;;;;;4940446;28;20751;-84
2020/12/18 01:27:14;;;;;;;;;;;;;;;;;;;;;
2020/12/18 01:30:06;;;;;;;18.63;10.47;;;3.10;99.90;;;;;;4973234;28;20456;-85
2020/12/18 01:33:21;;;;;;;17.53;11.40;;;3.10;99.90;;;;;;4973060;28;20429;-82
2020/12/18 01:36:23;;;;;;;13.53;10.67;;;3.00;99.90;;;;;;4940996;28;20465;-84
2020/12/18 01:38:51;;;;;;;16.30;10.47;;;2.90;99.90;;;;;;4884581;29;20440;-81
2020/12/18 01:41:34;;;;;;;13.90;10.80;;;2.90;99.90;;;;;;4940455;28;20484;-84
2020/12/18 01:44:05;;;;;;;15.90;10.23;;;2.80;99.90;;;;;;4970637;28;20940;-84
2020/12/18 01:46:32;;;;;;;14.90;10.47;;;2.80;99.90;;;;;;4972880;28;20426;-83
2020/12/18 01:49:08;;;;;;;14.37;9.77;;;2.80;99.90;;;;;;4950730;28;20442;-84
2020/12/18 01:52:05;;;;;;;18.97;10.53;;;2.70;99.90;;;;;;4952644;28;20778;-85
2020/12/18 01:54:31;;;;;;;21.57;11.93;;;2.70;99.90;;;;;;4938055;28;20439;-84
2020/12/18 01:57:27;;;;;;;;;;;;;;;;;;;;;
2020/12/18 01:59:56;;;;;;;15.10;10.13;;;2.80;99.90;;;;;;4968500;28;20186;-85
2020/12/18 02:02:28;;;;;;;21.33;12.00;;;2.80;99.90;;;;;;4942540;28;20468;-84
2020/12/18 02:04:56;;;;;;;13.67;9.47;;;2.80;99.90;;;;;;4968337;28;20457;-84
2020/12/18 02:10:38;;;;;;;14.07;10.70;;;2.70;99.90;;;;;;4970076;28;20777;-86
2020/12/18 02:13:04;;;;;;;13.43;9.50;;;2.70;99.90;;;;;;4969713;28;20433;-85
2020/12/18 02:15:40;;;;;;;11.63;9.90;;;2.70;99.90;;;;;;4952813;28;20466;-86
2020/12/18 02:18:11;;;;;;;15.90;10.60;;;2.70;99.90;;;;;;4967412;28;20959;-86
2020/12/18 02:20:46;;;;;;;15.70;9.53;;;2.70;99.90;;;;;;4949525;28;20835;-86
2020/12/18 02:23:21;;;;;;;17.10;10.20;;;2.70;99.90;;;;;;4941575;28;20434;-85
2020/12/18 02:26:06;;;;;;;14.73;10.43;;;2.70;99.90;;;;;;4951276;28;20421;-84
2020/12/18 02:28:59;;;;;;;16.00;10.17;;;2.80;99.90;;;;;;4967048;28;20426;-84
2020/12/18 02:31:25;;;;;;;14.37;10.40;;;2.70;99.90;;;;;;4952059;28;20450;-82
2020/12/18 02:33:56;;;;;;;13.20;9.37;;;2.70;99.90;;;;;;4948306;28;20430;-86
2020/12/18 02:36:26;;;;;;;17.40;10.40;;;2.70;99.90;;;;;;4966286;28;20277;-86
2020/12/18 02:39:00;;;;;;;17.53;11.00;;;2.60;99.90;;;;;;4970468;28;20453;-84
2020/12/18 02:41:34;;;;;;;17.87;10.80;;;2.60;99.90;;;;;;4950763;28;20419;-83
2020/12/18 02:44:20;;;;;;;14.00;9.17;;;2.50;99.90;;;;;;4941644;28;20824;-83
2020/12/18 02:47:08;;;;;;;12.33;9.43;;;2.60;99.90;;;;;;4954756;28;20488;-83
2020/12/18 02:49:33;;;;;;;12.57;9.50;;;2.70;99.90;;;;;;4966175;28;20532;-83
2020/12/18 02:52:05;;;;;;;15.67;9.50;;;2.70;99.90;;;;;;4966772;28;20940;-81
2020/12/18 02:54:40;;;;;;;11.93;9.03;;;2.60;99.90;;;;;;4956623;28;20632;-84
2020/12/18 03:00:12;;;;;;;13.47;9.83;;;2.50;99.90;;;;;;4965100;28;20439;-85
2020/12/18 03:03:04;;;;;;;13.37;9.70;;;2.50;99.90;;;;;;4935984;28;20437;-85
2020/12/18 03:05:45;;;;;;;11.90;8.30;;;2.50;99.90;;;;;;4947548;28;20460;-84
2020/12/18 03:08:20;;;;;;;11.63;8.60;;;2.50;99.90;;;;;;4947524;28;20462;-84
2020/12/18 03:10:48;;;;;;;13.00;8.63;;;2.40;99.90;;;;;;4951020;28;20464;-85
2020/12/18 03:13:17;;;;;;;17.57;9.77;;;2.30;99.90;;;;;;4949592;28;20512;-85
2020/12/18 03:15:45;;;;;;;13.53;9.60;;;2.30;99.90;;;;;;4969314;28;20466;-83
2020/12/18 03:18:11;;;;;;;13.10;8.57;;;2.30;99.90;;;;;;4954063;28;20428;-83
2020/12/18 03:20:43;;;;;;;10.20;8.00;;;2.30;99.90;;;;;;4944431;28;20528;-82
2020/12/18 03:23:30;;;;;;;10.70;8.20;;;2.40;99.90;;;;;;4948398;28;20182;-85
2020/12/18 03:25:58;;;;;;;15.33;8.70;;;2.40;99.90;;;;;;4939516;28;20844;-84
2020/12/18 03:28:29;;;;;;;12.37;7.83;;;2.40;99.90;;;;;;4952736;28;20468;-85
2020/12/18 03:30:56;;;;;;;13.77;8.20;;;2.30;99.90;;;;;;4953114;28;20450;-84
2020/12/18 03:33:34;;;;;;;12.00;8.23;;;2.30;99.90;;;;;;4952009;28;20444;-86
2020/12/18 03:36:03;;;;;;;16.93;7.70;;;2.20;99.90;;;;;;4953422;28;20470;-85
2020/12/18 03:38:29;;;;;;;11.10;6.93;;;2.30;99.90;;;;;;4943952;28;20453;-85
2020/12/18 03:40:57;;;;;;;11.07;7.90;;;2.30;99.90;;;;;;4950632;28;20440;-85
2020/12/18 03:43:22;;;;;;;8.93;6.67;;;2.40;99.90;;;;;;4949940;28;20202;-84
2020/12/18 03:45:52;;;;;;;10.73;7.03;;;2.40;99.90;;;;;;4953493;28;20822;-85
2020/12/18 03:48:18;;;;;;;9.10;6.57;;;2.40;99.90;;;;;;4969581;28;20212;-85
2020/12/18 03:50:43;;;;;;;12.33;7.00;;;2.40;99.90;;;;;;4947986;28;20501;-84
2020/12/18 03:53:09;;;;;;;10.43;6.00;;;2.30;99.90;;;;;;4967840;28;20185;-85
2020/12/18 03:55:37;;;;;;;10.00;7.13;;;2.30;99.90;;;;;;4967021;28;20239;-86
2020/12/18 03:58:12;;;;;;;6.93;4.73;;;2.30;99.90;;;;;;4932349;28;20691;-82
2020/12/18 04:00:41;;;;;;;7.87;5.80;;;2.30;99.90;;;;;;4968336;28;20507;-84
2020/12/18 04:03:16;;;;;;;11.43;7.00;;;2.40;99.90;;;;;;4970539;28;20487;-85
2020/12/18 04:05:45;;;;;;;8.30;5.63;;;2.30;99.90;;;;;;4971703;28;20439;-85
2020/12/18 04:08:10;;;;;;;8.50;6.03;;;2.30;99.90;;;;;;4936974;28;20550;-85
2020/12/18 04:10:39;;;;;;;10.50;7.43;;;2.30;99.90;;;;;;4965791;28;20961;-85
2020/12/18 04:13:15;;;;;;;9.77;6.40;;;2.20;99.90;;;;;;4952719;28;20195;-84
2020/12/18 04:18:29;;;;;;;11.60;7.60;;;2.30;99.90;;;;;;4953529;28;20440;-84
2020/12/18 04:20:59;;;;;;;8.10;5.97;;;2.20;99.90;;;;;;4960461;28;20437;-84
2020/12/18 04:23:42;;;;;;;6.50;5.90;;;2.10;99.90;;;;;;4952258;28;20212;-84
2020/12/18 04:26:10;;;;;;;19.17;7.10;;;2.30;99.90;;;;;;4952086;28;20533;-84
2020/12/18 04:31:39;;;;;;;8.97;5.67;;;2.30;99.90;;;;;;4943508;28;20437;-84
2020/12/18 04:34:06;;;;;;;7.87;4.63;;;2.20;99.90;;;;;;4951485;28;20439;-84
2020/12/18 04:36:41;;;;;;;8.20;5.53;;;2.20;99.90;;;;;;4938359;28;20473;-84
2020/12/18 04:39:09;;;;;;;7.83;4.93;;;2.20;99.90;;;;;;4936584;28;20475;-81
2020/12/18 04:41:47;;;;;;;7.90;4.50;;;2.20;99.90;;;;;;4964052;28;20432;-85
2020/12/18 04:44:18;;;;;;;6.60;5.43;;;2.20;99.90;;;;;;4949689;28;20459;-84
2020/12/18 04:46:54;;;;;;;6.90;5.73;;;2.20;99.90;;;;;;4967376;28;20465;-84
2020/12/18 04:49:30;;;;;;;6.97;5.43;;;2.20;99.90;;;;;;4950482;28;20475;-83
2020/12/18 04:52:16;;;;;;;9.00;5.27;;;2.20;99.90;;;;;;4950354;28;20463;-84
2020/12/18 04:54:43;;;;;;;9.40;5.90;;;2.20;99.90;;;;;;4948619;28;20441;-84
2020/12/18 04:57:11;;;;;;;6.40;4.73;;;2.20;99.90;;;;;;4931986;28;20453;-84
2020/12/18 04:59:46;;;;;;;5.57;4.40;;;2.20;99.90;;;;;;4967840;28;20547;-84
2020/12/18 05:02:22;;;;;;;;;;;;;;;;;;;;;
2020/12/18 05:04:53;;;;;;;6.80;4.97;;;2.20;99.90;;;;;;4968065;28;20446;-84
2020/12/18 05:07:19;;;;;;;6.93;5.27;;;2.10;99.90;;;;;;4934237;28;20613;-84
2020/12/18 05:10:00;;;;;;;8.03;4.67;;;1.90;99.90;;;;;;4968148;28;20514;-84
2020/12/18 05:12:26;;;;;;;7.83;4.90;;;1.90;99.90;;;;;;4951772;28;20530;-84
2020/12/18 05:14:57;;;;;;;7.40;5.20;;;1.90;99.90;;;;;;4951189;28;20455;-84
2020/12/18 05:17:25;;;;;;;5.80;4.70;;;2.00;99.90;;;;;;4948671;28;20225;-84
2020/12/18 05:20:06;;;;;;;8.27;5.83;;;2.10;99.90;;;;;;4933515;28;20464;-84
2020/12/18 05:22:32;;;;;;;6.07;4.37;;;2.20;99.90;;;;;;4955366;28;20948;-84
2020/12/18 05:25:16;;;;;;;6.63;4.50;;;2.00;99.90;;;;;;4949185;28;20434;-84
2020/12/18 05:27:42;;;;;;;10.77;5.40;;;1.90;99.90;;;;;;4951442;28;20178;-84
2020/12/18 05:30:13;;;;;;;8.43;4.90;;;1.90;99.90;;;;;;4950303;28;20530;-84
2020/12/18 05:32:39;;;;;;;6.73;4.77;;;1.90;99.90;;;;;;4966586;28;20201;-84
2020/12/18 05:35:05;;;;;;;4.90;4.40;;;1.90;99.90;;;;;;4967490;28;20480;-83
2020/12/18 05:37:45;;;;;;;5.43;4.70;;;1.80;99.90;;;;;;4954039;28;20177;-84
2020/12/18 05:40:17;;;;;;;8.37;5.63;;;1.80;99.90;;;;;;4952541;28;20475;-84
2020/12/18 05:42:45;;;;;;;6.40;5.23;;;1.80;99.90;;;;;;4935901;28;20445;-84
2020/12/18 05:45:19;;;;;;;7.23;4.93;;;1.80;99.90;;;;;;4954099;28;20521;-83
2020/12/18 05:48:07;;;;;;;9.63;5.27;;;1.80;99.90;;;;;;4965990;28;20792;-84
2020/12/18 05:50:38;;;;;;;8.87;5.03;;;1.90;99.90;;;;;;4948864;28;20435;-84
2020/12/18 05:53:08;;;;;;;7.83;5.07;;;1.80;99.90;;;;;;4966469;28;21256;-84
2020/12/18 05:55:41;;;;;;;5.77;4.40;;;1.90;99.90;;;;;;4951349;28;20996;-84
2020/12/18 05:58:13;;;;;;;11.50;6.00;;;1.90;99.90;;;;;;4937346;28;20465;-85
2020/12/18 06:00:43;;;;;;;6.00;5.03;;;1.90;99.90;;;;;;4969673;28;20448;-84
2020/12/18 06:03:11;;;;;;;6.97;5.47;;;1.90;99.90;;;;;;4968163;28;20432;-85
2020/12/18 06:05:46;;;;;;;9.90;5.57;;;1.80;99.90;;;;;;4951424;28;20438;-85
2020/12/18 06:08:16;;;;;;;6.83;5.03;;;1.70;99.90;;;;;;4949828;28;20453;-85
2020/12/18 06:10:43;;;;;;;7.60;4.93;;;1.70;99.90;;;;;;4954990;28;20503;-84
2020/12/18 06:13:12;;;;;;;10.67;5.77;;;1.70;99.90;;;;;;4953270;28;20446;-85
2020/12/18 06:15:38;;;;;;;7.00;5.17;;;1.70;99.90;;;;;;4956599;28;20562;-84
2020/12/18 06:18:04;;;;;;;8.93;5.53;;;1.70;99.90;;;;;;4952292;28;20520;-84
2020/12/18 06:20:37;;;;;;;12.50;5.00;;;1.70;99.90;;;;;;4953525;28;20477;-84
2020/12/18 06:23:04;;;;;;;12.23;6.53;;;1.70;99.90;;;;;;4955825;28;20770;-84
2020/12/18 06:25:31;;;;;;;7.27;5.03;;;1.70;99.90;;;;;;4954883;28;20445;-84
2020/12/18 06:28:01;;;;;;;6.77;4.90;;;1.60;99.90;;;;;;4938546;28;20443;-84
2020/12/18 06:30:27;;;;;;;7.03;5.10;;;1.50;99.90;;;;;;4970782;28;20442;-84
2020/12/18 06:32:53;;;;;;;10.30;6.50;;;1.40;99.90;;;;;;4968307;28;20554;-84
2020/12/18 06:35:26;;;;;;;6.73;4.80;;;1.40;99.90;;;;;;4953874;28;20553;-84
2020/12/18 06:37:52;;;;;;;9.97;5.67;;;1.40;99.90;;;;;;4939228;28;20180;-83
2020/12/18 06:40:33;;;;;;;11.83;5.43;;;1.30;99.90;;;;;;4971571;28;20452;-85
2020/12/18 06:43:02;;;;;;;9.20;5.13;;;1.30;99.90;;;;;;4950884;28;20768;-84
2020/12/18 06:45:28;;;;;;;7.50;5.40;;;1.30;99.90;;;;;;4968158;28;20923;-84
2020/12/18 06:47:56;;;;;;;11.73;5.53;;;1.40;99.90;;;;;;4952539;28;20449;-84
2020/12/18 06:50:22;;;;;;;8.33;5.30;;;1.40;99.90;;;;;;4971805;28;20216;-84
2020/12/18 06:52:49;;;;;;;6.80;5.00;;;1.40;99.90;;;;;;4971243;28;20441;-84
2020/12/18 06:55:17;;;;;;;8.33;5.33;;;1.50;99.90;;;;;;4970821;28;20545;-84
2020/12/18 06:57:42;;;;;;;9.43;5.87;;;1.40;99.90;;;;;;4970942;28;20427;-84
2020/12/18 07:00:27;;;;;;;8.23;5.60;;;1.40;99.90;;;;;;4952336;28;21022;-84
2020/12/18 07:02:54;;;;;;;11.50;5.90;;;1.40;99.90;;;;;;4968395;28;20433;-85
2020/12/18 07:05:42;;;;;;;8.53;5.37;;;1.50;99.90;;;;;;4940430;28;20427;-84
2020/12/18 07:08:09;;;;;;;8.70;6.97;;;1.50;99.90;;;;;;4970875;28;20783;-84
2020/12/18 07:10:45;;;;;;;17.63;6.57;;;1.40;99.90;;;;;;4970143;28;20444;-84
2020/12/18 07:13:18;;;;;;;12.00;8.63;;;1.40;99.90;;;;;;4966890;28;20977;-84
2020/12/18 07:15:48;;;;;;;10.07;7.50;;;1.50;99.90;;;;;;4970208;28;20457;-84
2020/12/18 07:18:19;;;;;;;16.77;7.53;;;1.40;99.90;;;;;;4968964;28;20422;-84
2020/12/18 07:21:18;;;;;;;12.50;7.20;;;1.30;99.90;;;;;;4954192;28;20499;-83
2020/12/18 07:23:49;;;;;;;7.80;5.50;;;1.20;99.90;;;;;;4966290;28;20507;-81
2020/12/18 07:26:16;;;;;;;20.20;6.80;;;1.20;99.90;;;;;;4968545;28;20511;-83
2020/12/18 07:28:43;;;;;;;19.40;7.07;;;1.20;99.90;;;;;;4955711;28;20450;-83
2020/12/18 07:31:22;;;;;;;10.67;6.33;;;1.20;99.90;;;;;;4951076;28;20496;-83
2020/12/18 07:33:52;;;;;;;21.77;8.80;;;1.20;99.90;;;;;;4966736;28;20977;-83
2020/12/18 07:36:18;;;;;;;21.57;7.70;;;1.20;99.90;;;;;;4968118;28;20548;-83
2020/12/18 07:38:44;;;;;;;10.23;7.27;;;1.20;99.90;;;;;;4953996;28;20450;-82
2020/12/18 07:41:16;;;;;;;18.60;8.87;;;1.20;99.90;;;;;;4952706;28;20947;-82
2020/12/18 07:43:44;;;;;;;11.50;8.23;;;1.20;99.90;;;;;;4966635;28;20213;-83
2020/12/18 07:46:12;;;;;;;19.80;8.30;;;1.30;99.90;;;;;;4954868;28;21027;-82
2020/12/18 07:48:40;;;;;;;12.30;8.30;;;1.30;99.90;;;;;;4966320;28;20440;-80
2020/12/18 07:51:11;;;;;;;13.17;9.17;;;1.30;99.90;;;;;;4962432;28;20811;-82
2020/12/18 07:53:42;;;;;;;20.17;10.40;;;1.30;99.90;;;;;;4948419;28;20842;-82
2020/12/18 07:56:14;;;;;;;13.70;10.00;;;1.40;99.90;;;;;;4938599;28;20476;-83
2020/12/18 07:58:53;;;;;;;15.70;9.80;;;1.40;99.90;;;;;;4952551;28;20432;-81
2020/12/18 08:01:32;;;;;;;16.33;9.93;;;1.50;99.90;;;;;;4967479;28;20996;-82
2020/12/18 08:04:09;;;;;;;22.30;9.40;;;1.60;99.90;;;;;;4952469;28;20440;-81
2020/12/18 08:06:39;;;;;;;13.33;9.37;;;1.60;99.90;;;;;;4950874;28;20440;-81
2020/12/18 08:09:06;;;;;;;20.90;8.83;;;1.60;99.90;;;;;;4950076;28;20481;-81
2020/12/18 08:11:33;;;;;;;14.73;9.63;;;1.60;99.90;;;;;;4971860;28;20456;-83
2020/12/18 08:14:01;;;;;;;18.30;9.43;;;1.70;99.90;;;;;;4936682;28;20960;-81
2020/12/18 08:16:32;;;;;;;15.90;8.63;;;1.60;99.90;;;;;;4958347;28;20465;-82
2020/12/18 08:19:03;;;;;;;14.97;9.10;;;1.60;99.90;;;;;;4962820;28;20532;-81
2020/12/18 08:21:41;;;;;;;16.13;8.20;;;1.70;99.90;;;;;;4939913;28;20928;-82
2020/12/18 08:24:30;;;;;;;13.07;9.93;;;1.80;99.90;;;;;;4933399;28;20457;-82
2020/12/18 08:27:01;;;;;;;14.30;9.97;;;1.80;99.90;;;;;;4966103;28;20451;-82
2020/12/18 08:29:49;;;;;;;17.00;9.70;;;1.80;99.90;;;;;;4965592;28;21010;-83
2020/12/18 08:32:27;;;;;;;20.07;9.47;;;1.90;99.90;;;;;;4965986;28;20961;-83
2020/12/18 08:35:07;;;;;;;18.37;8.93;;;2.00;99.90;;;;;;4950727;28;20946;-83
2020/12/18 08:37:33;;;;;;;17.47;8.40;;;2.00;99.90;;;;;;4949414;28;20451;-83
2020/12/18 08:40:02;;;;;;;18.83;9.20;;;2.00;99.90;;;;;;4966770;28;20452;-81
2020/12/18 08:42:28;;;;;;;11.87;8.03;;;2.00;99.90;;;;;;4953048;28;20436;-81
2020/12/18 08:45:01;;;;;;;13.90;7.93;;;2.00;99.90;;;;;;4946631;28;20477;-82
2020/12/18 08:47:30;;;;;;;13.17;8.20;;;1.90;99.90;;;;;;4934770;28;20201;-83
2020/12/18 08:49:57;;;;;;;19.30;7.80;;;1.90;99.90;;;;;;4950071;28;20519;-83
2020/12/18 08:52:24;;;;;;;8.83;6.60;;;1.90;99.90;;;;;;4957802;28;20466;-82
2020/12/18 08:55:05;;;;;;;16.80;8.00;;;1.80;99.90;;;;;;4963123;28;20464;-83
2020/12/18 08:57:32;;;;;;;15.23;8.07;;;1.80;99.90;;;;;;4964027;28;20548;-83
2020/12/18 09:00:07;;;;;;;16.17;6.77;;;1.80;99.90;;;;;;4943789;28;20461;-80
2020/12/18 09:02:48;;;;;;;9.23;5.90;;;1.80;99.90;;;;;;4959220;28;20476;-85
2020/12/18 09:05:28;;;;;;;13.87;7.27;;;1.80;99.90;;;;;;4966100;28;20429;-84
2020/12/18 09:08:05;;;;;;;13.87;7.63;;;1.80;99.90;;;;;;4946942;28;20447;-84
2020/12/18 09:10:35;;;;;;;13.70;6.90;;;1.80;99.90;;;;;;4948947;28;20467;-84
2020/12/18 09:13:25;;;;;;;9.53;7.07;;;1.90;99.90;;;;;;4950213;28;20416;-84
2020/12/18 09:16:12;;;;;;;12.20;7.30;;;2.10;99.90;;;;;;4952757;28;20479;-86
2020/12/18 09:18:44;;;;;;;14.40;8.17;;;2.30;99.90;;;;;;4950561;28;20436;-84
2020/12/18 09:21:19;;;;;;;11.83;8.67;;;2.50;99.90;;;;;;4949762;28;20420;-85
2020/12/18 09:23:46;;;;;;;15.17;9.10;;;2.70;99.90;;;;;;4936974;28;20424;-83
2020/12/18 09:26:28;;;;;;;12.80;8.10;;;2.80;99.90;;;;;;4954011;28;20581;-85
2020/12/18 09:29:54;;;;;;;13.40;8.80;;;3.00;99.90;;;;;;4950664;28;20779;-87
2020/12/18 09:32:47;;;;;;;13.27;8.20;;;3.10;99.90;;;;;;4944101;28;20442;-86
2020/12/18 09:35:51;;;;;;;18.10;9.30;;;3.30;99.90;;;;;;4957510;28;20450;-88
2020/12/18 09:41:03;;;;;;;14.27;8.67;;;3.50;99.90;;;;;;5080977;23;20497;-87
2020/12/18 09:43:28;;;;;;;11.53;8.33;;;3.60;99.90;;;;;;4951786;28;20485;-86
2020/12/18 09:49:17;;;;;;;15.40;8.60;;;3.50;99.90;;;;;;4931015;28;20285;-87
2020/12/18 09:52:02;;;;;;;17.43;7.77;;;3.50;99.90;;;;;;4932366;28;20454;-87
2020/12/18 09:54:40;;;;;;;15.27;8.10;;;3.40;99.90;;;;;;4939828;28;20434;-88
2020/12/18 09:57:34;;;;;;;18.20;8.20;;;3.30;99.90;;;;;;4952833;28;20487;-87
2020/12/18 10:00:15;;;;;;;14.03;7.63;;;3.30;99.90;;;;;;4952176;28;20930;-88
2020/12/18 10:03:29;;;;;;;11.80;8.20;;;3.40;99.90;;;;;;4960075;28;20470;-87
2020/12/18 10:05:54;;;;;;;13.93;8.00;;;3.40;99.90;;;;;;4925496;28;20683;-86
2020/12/18 10:08:26;;;;;;;13.63;9.07;;;3.40;99.90;;;;;;4940555;28;20431;-85
2020/12/18 10:10:55;;;;;;;21.90;10.03;;;3.60;99.90;;;;;;4964819;28;20186;-86
2020/12/18 10:13:23;;;;;;;20.00;9.20;;;3.60;99.90;;;;;;4950492;28;20446;-86
2020/12/18 10:15:57;;;;;;;14.73;8.90;;;3.70;99.90;;;;;;4952141;28;20509;-85
2020/12/18 10:18:37;;;;;;;22.10;10.47;;;3.80;99.90;;;;;;4953853;28;20422;-82
2020/12/18 10:21:29;;;;;;;21.07;9.70;;;3.80;99.90;;;;;;4938415;28;20517;-86
2020/12/18 10:24:12;;;;;;;40.57;12.00;;;3.80;99.90;;;;;;4931731;29;20470;-86
2020/12/18 10:27:12;;;;;;;;;;;;;;;;;;;;;
2020/12/18 10:50:59;;;;;;;16.40;11.63;;;4.20;99.90;;;;;;5495969;22;20492;-84
2020/12/18 10:57:26;;;;;;;16.90;10.90;;;4.40;99.90;;;;;;4912131;29;20563;-85
2020/12/18 10:59:55;;;;;;;24.90;12.80;;;4.40;99.90;;;;;;4896155;29;20467;-87
2020/12/18 11:05:44;;;;;;;29.73;12.13;;;4.60;99.90;;;;;;4977562;28;20455;-85
2020/12/18 11:08:12;;;;;;;20.87;12.43;;;4.80;99.90;;;;;;4977695;28;20948;-83
2020/12/18 11:10:54;;;;;;;16.77;10.70;;;4.90;99.90;;;;;;4972111;28;20456;-86
2020/12/18 11:13:55;;;;;;;16.73;9.97;;;4.90;99.90;;;;;;4975800;28;20434;-85
2020/12/18 11:16:50;;;;;;;18.00;11.20;;;5.00;99.90;;;;;;4974642;28;20500;-85
2020/12/18 11:25:33;;;;;;;20.90;12.47;;;5.20;99.90;;;;;;4992514;28;20460;-83
2020/12/18 11:31:17;;;;;;;15.73;10.27;;;5.30;99.90;;;;;;4990744;28;20413;-85
2020/12/18 11:33:51;;;;;;;17.73;10.40;;;5.40;99.90;;;;;;4971730;28;20436;-86
2020/12/18 11:36:47;;;;;;;17.50;12.47;;;5.40;99.90;;;;;;4971488;28;20517;-87
2020/12/18 11:39:30;;;;;;;19.03;10.63;;;5.60;99.90;;;;;;4963764;28;20879;-86
2020/12/18 11:42:33;;;;;;;16.00;11.03;;;5.60;99.90;;;;;;4972374;28;20498;-84
2020/12/18 11:51:51;;;;;;;19.73;10.97;;;5.80;99.90;;;;;;4989540;28;20440;-86
2020/12/18 11:54:17;;;;;;;21.63;10.10;;;5.90;99.90;;;;;;4961104;28;20476;-87
2020/12/18 11:57:08;;;;;;;13.73;9.77;;;6.00;99.90;;;;;;4954798;28;20500;-87
2020/12/18 11:59:41;;;;;;;19.27;11.87;;;6.00;99.90;;;;;;4988826;28;20292;-86
2020/12/18 12:02:09;;;;;;;19.40;12.30;;;6.10;99.90;;;;;;4992079;28;20448;-85
2020/12/18 12:04:35;;;;;;;16.93;13.00;;;6.20;99.90;;;;;;5006213;28;20441;-87
2020/12/18 12:07:03;;;;;;;18.90;12.20;;;6.20;99.90;;;;;;5004539;28;20421;-86
2020/12/18 12:09:29;;;;;;;16.70;11.57;;;6.30;99.90;;;;;;5005806;28;20244;-88
2020/12/18 12:11:57;;;;;;;17.93;12.70;;;6.40;99.90;;;;;;4985699;28;20435;-86
2020/12/18 12:14:35;;;;;;;20.40;12.00;;;6.40;99.90;;;;;;4989407;28;20538;-88
2020/12/18 12:17:07;;;;;;;19.20;12.00;;;6.50;99.90;;;;;;4973433;28;20482;-86
2020/12/18 12:19:33;;;;;;;19.23;13.30;;;6.50;99.90;;;;;;4969434;28;20503;-86
2020/12/18 12:21:58;;;;;;;21.23;12.83;;;6.50;99.90;;;;;;4954227;28;20429;-87
2020/12/18 12:24:42;;;;;;;17.83;13.90;;;6.60;99.90;;;;;;4953141;28;20272;-86
2020/12/18 12:27:12;;;;;;;16.43;12.27;;;6.60;99.90;;;;;;4969247;28;20189;-87
2020/12/18 12:29:49;;;;;;;24.30;12.47;;;6.60;99.90;;;;;;4969789;28;20449;-88
2020/12/18 12:32:21;;;;;;;18.30;12.60;;;6.70;99.90;;;;;;4983552;28;20452;-88
2020/12/18 12:34:52;;;;;;;20.37;13.20;;;6.80;99.90;;;;;;4954123;28;20457;-85
2020/12/18 12:37:24;;;;;;;21.23;14.43;;;6.90;99.90;;;;;;4964939;28;20472;-88
2020/12/18 12:39:50;;;;;;;20.87;12.90;;;7.10;99.90;;;;;;4991838;23;20498;-88
2020/12/18 12:42:25;;;;;;;20.43;14.00;;;7.10;99.90;;;;;;4964144;28;20480;-87
2020/12/18 12:45:19;;;;;;;23.13;13.67;;;7.20;99.90;;;;;;4969754;28;20508;-85
2020/12/18 12:47:44;;;;;;;22.13;15.43;;;7.20;99.90;;;;;;4969720;28;20432;-90
2020/12/18 12:50:13;;;;;;;26.77;16.17;;;7.20;99.90;;;;;;4963953;28;20437;-89
2020/12/18 12:52:39;;;;;;;25.00;13.70;;;7.20;99.90;;;;;;4961047;28;20190;-88
2020/12/18 12:55:05;;;;;;;26.90;14.23;;;7.20;99.90;;;;;;4955326;28;20446;-88
2020/12/18 12:57:38;;;;;;;24.30;15.03;;;7.10;99.90;;;;;;4970294;28;20190;-88
2020/12/18 13:00:06;;;;;;;24.07;13.50;;;7.10;99.90;;;;;;4964984;28;20449;-86
2020/12/18 13:02:38;;;;;;;25.30;14.33;;;7.00;99.90;;;;;;4966289;28;20433;-87
2020/12/18 13:05:03;;;;;;;24.23;15.50;;;7.00;99.90;;;;;;4984469;28;20444;-87
2020/12/18 13:07:30;;;;;;;24.97;15.13;;;7.10;99.90;;;;;;4963575;28;20430;-87
2020/12/18 13:10:14;;;;;;;18.87;12.40;;;7.10;99.90;;;;;;4964468;28;20277;-88
2020/12/18 13:12:46;;;;;;;25.60;15.30;;;7.10;99.90;;;;;;4947702;28;20578;-88
2020/12/18 13:15:12;;;;;;;25.63;15.33;;;7.10;99.90;;;;;;4952848;28;20426;-87
2020/12/18 13:17:41;;;;;;;23.50;15.50;;;7.20;99.90;;;;;;4964197;28;20814;-87
2020/12/18 13:20:09;;;;;;;21.47;14.30;;;7.20;99.90;;;;;;4970095;28;20228;-86
2020/12/18 13:22:46;;;;;;;28.20;15.90;;;7.20;99.90;;;;;;4971092;28;20467;-87
2020/12/18 13:25:12;;;;;;;22.07;14.67;;;7.10;99.90;;;;;;4987242;28;20459;-87
2020/12/18 13:27:41;;;;;;;26.80;14.10;;;7.00;99.90;;;;;;4955105;28;20445;-86
2020/12/18 13:30:40;;;;;;;22.10;14.33;;;7.00;99.90;;;;;;4955979;28;20228;-87
2020/12/18 13:33:21;;;;;;;22.17;12.93;;;6.80;99.90;;;;;;4968323;28;21006;-85
2020/12/18 13:35:47;;;;;;;21.10;12.70;;;6.70;99.90;;;;;;4987399;28;20799;-84
2020/12/18 13:38:22;;;;;;;22.97;14.70;;;6.50;99.90;;;;;;4967432;28;20419;-86
2020/12/18 13:40:56;;;;;;;23.57;13.60;;;6.50;99.90;;;;;;4971381;28;21134;-87
2020/12/18 13:47:07;;;;;;;23.53;14.27;;;6.50;99.90;;;;;;4962728;28;20421;-86
2020/12/18 13:52:19;;;;;;;24.03;14.50;;;6.70;99.90;;;;;;5812517;23;21133;-88
2020/12/18 13:55:00;;;;;;;25.80;14.37;;;6.70;99.90;;;;;;4975431;28;20441;-86
2020/12/18 13:57:39;;;;;;;24.87;14.30;;;6.80;99.90;;;;;;4956247;28;20469;-86
2020/12/18 14:00:07;;;;;;;20.87;13.57;;;6.80;99.90;;;;;;4956662;28;20468;-86
2020/12/18 14:02:38;;;;;;;25.93;14.07;;;6.70;99.90;;;;;;4942357;28;20440;-88
2020/12/18 14:05:16;;;;;;;22.97;14.20;;;6.70;99.90;;;;;;4957754;28;20524;-87
2020/12/18 14:07:41;;;;;;;21.87;13.67;;;6.70;99.90;;;;;;4955632;28;21201;-89
2020/12/18 14:10:10;;;;;;;24.47;14.83;;;6.70;99.90;;;;;;4970811;28;20458;-85
2020/12/18 14:43:55;;;;;;;;;;;;;;;;;;;;;
2020/12/18 15:17:35;;;;;;;24.43;14.93;;;5.50;99.90;;;;;;4978932;28;20500;-87
2020/12/18 15:40:32;;;;;;;31.13;16.90;;;4.80;99.90;;;;;;5695697;23;20610;-79
2020/12/18 15:43:23;;;;;;;30.63;17.00;;;4.80;99.90;;;;;;4944301;28;20447;-78
2020/12/18 15:46:05;;;;;;;31.97;16.10;;;4.80;99.90;;;;;;4945701;28;20517;-78
2020/12/18 15:49:03;;;;;;;42.93;16.73;;;4.80;99.90;;;;;;4946818;28;20443;-73
2020/12/18 15:51:31;;;;;;;38.57;17.30;;;4.80;99.90;;;;;;4913518;28;20455;-77
2020/12/18 15:54:37;;;;;;;32.83;16.77;;;4.80;99.90;;;;;;4948670;28;20464;-86
2020/12/18 15:58:01;;;;;;;35.80;15.30;;;4.80;99.90;;;;;;4908737;29;21261;-87